sensor_id;sensor_type;location;lat;lon;timestamp;temperature;humidity
1461;DHT22;724;49.910;12.530;2023-05-07T00:01:16;8.60;99.90
1461;DHT22;724;49.910;12.530;2023-05-07T00:03:43;8.60;99.90
1461;DHT22;724;49.910;12.530;2023-05-07T00:06:10;8.60;1.00
1461;DHT22;724;49.910;12.530;2023-05-07T00:08:38;8.50;1.00
1461;DHT22;724;49.910;12.530;2023-05-07T00:11:09;8.50;1.00
1461;DHT22;724;49.910;12.530;2023-05-07T00:13:37;8.40;1.00
1461;DHT22;724;49.910;12.530;2023-05-07T00:16:04;8.30;1.00
1461;DHT22;724;49.910;12.530;2023-05-07T00:18:31;8.30;1.00
1461;DHT22;724;49.910;12.530;2023-05-07T00:20:58;8.40;1.00
1461;DHT22;724;49.910;12.530;2023-05-07T00:23:25;8.50;1.00
1461;DHT22;724;49.910;12.530;2023-05-07T00:25:56;8.50;1.00
1461;DHT22;724;49.910;12.530;2023-05-07T00:28:27;8.50;99.90
1461;DHT22;724;49.910;12.530;2023-05-07T00:30:55;8.40;1.00
1461;DHT22;724;49.910;12.530;2023-05-07T00:33:22;8.30;1.00
1461;DHT22;724;49.910;12.530;2023-05-07T00:35:52;8.20;1.00
1461;DHT22;724;49.910;12.530;2023-05-07T00:38:19;8.20;99.90
1461;DHT22;724;49.910;12.530;2023-05-07T00:40:47;8.20;1.00
1461;DHT22;724;49.910;12.530;2023-05-07T00:43:16;8.10;1.00
1461;DHT22;724;49.910;12.530;2023-05-07T00:45:44;8.20;1.00
1461;DHT22;724;49.910;12.530;2023-05-07T00:48:13;8.20;1.00
1461;DHT22;724;49.910;12.530;2023-05-07T00:50:40;8.10;1.00
1461;DHT22;724;49.910;12.530;2023-05-07T00:53:08;8.10;1.00
1461;DHT22;724;49.910;12.530;2023-05-07T00:55:38;8.00;91.60
1461;DHT22;724;49.910;12.530;2023-05-07T00:58:05;8.00;99.90
1461;DHT22;724;49.910;12.530;2023-05-07T01:00:33;8.00;99.90
1461;DHT22;724;49.910;12.530;2023-05-07T01:03:03;8.10;1.00
1461;DHT22;724;49.910;12.530;2023-05-07T01:05:35;8.10;1.00
1461;DHT22;724;49.910;12.530;2023-05-07T01:08:05;8.10;1.00
1461;DHT22;724;49.910;12.530;2023-05-07T01:10:33;8.10;1.00
1461;DHT22;724;49.910;12.530;2023-05-07T01:13:00;8.00;1.00
1461;DHT22;724;49.910;12.530;2023-05-07T01:15:27;7.90;1.00
1461;DHT22;724;49.910;12.530;2023-05-07T01:17:57;7.90;1.00
1461;DHT22;724;49.910;12.530;2023-05-07T01:20:26;7.90;1.00
1461;DHT22;724;49.910;12.530;2023-05-07T01:22:55;7.90;1.00
1461;DHT22;724;49.910;12.530;2023-05-07T01:25:26;7.80;1.00
1461;DHT22;724;49.910;12.530;2023-05-07T01:27:53;7.80;2.90
1461;DHT22;724;49.910;12.530;2023-05-07T01:30:21;7.80;52.50
1461;DHT22;724;49.910;12.530;2023-05-07T01:32:51;7.70;99.90
1461;DHT22;724;49.910;12.530;2023-05-07T01:35:22;7.60;99.90
1461;DHT22;724;49.910;12.530;2023-05-07T01:37:52;7.70;99.90
1461;DHT22;724;49.910;12.530;2023-05-07T01:40:21;7.70;99.90
1461;DHT22;724;49.910;12.530;2023-05-07T01:42:49;7.70;99.90
1461;DHT22;724;49.910;12.530;2023-05-07T01:45:16;7.80;99.90
1461;DHT22;724;49.910;12.530;2023-05-07T01:47:44;7.70;99.90
1461;DHT22;724;49.910;12.530;2023-05-07T01:50:12;7.70;99.90
1461;DHT22;724;49.910;12.530;2023-05-07T01:52:39;7.70;99.90
1461;DHT22;724;49.910;12.530;2023-05-07T01:55:07;7.60;99.90
1461;DHT22;724;49.910;12.530;2023-05-07T01:57:39;7.60;99.90
1461;DHT22;724;49.910;12.530;2023-05-07T02:00:11;7.70;99.90
1461;DHT22;724;49.910;12.530;2023-05-07T02:02:43;7.70;99.90
1461;DHT22;724;49.910;12.530;2023-05-07T02:05:11;7.60;99.90
1461;DHT22;724;49.910;12.530;2023-05-07T02:07:38;7.70;99.90
1461;DHT22;724;49.910;12.530;2023-05-07T02:10:07;7.70;99.90
1461;DHT22;724;49.910;12.530;2023-05-07T02:12:35;7.70;99.90
1461;DHT22;724;49.910;12.530;2023-05-07T02:15:08;7.70;99.90
1461;DHT22;724;49.910;12.530;2023-05-07T02:17:39;7.70;99.90
1461;DHT22;724;49.910;12.530;2023-05-07T02:20:26;7.60;99.90
1461;DHT22;724;49.910;12.530;2023-05-07T02:22:54;7.50;99.90
1461;DHT22;724;49.910;12.530;2023-05-07T02:25:21;7.50;99.90
1461;DHT22;724;49.910;12.530;2023-05-07T02:27:49;7.50;99.90
1461;DHT22;724;49.910;12.530;2023-05-07T02:30:18;7.50;99.90
1461;DHT22;724;49.910;12.530;2023-05-07T02:32:46;7.50;99.90
1461;DHT22;724;49.910;12.530;2023-05-07T02:35:15;7.60;99.90
1461;DHT22;724;49.910;12.530;2023-05-07T02:37:47;7.50;99.90
1461;DHT22;724;49.910;12.530;2023-05-07T02:40:14;7.50;99.90
1461;DHT22;724;49.910;12.530;2023-05-07T02:42:44;7.50;99.90
1461;DHT22;724;49.910;12.530;2023-05-07T02:45:13;7.60;99.90
1461;DHT22;724;49.910;12.530;2023-05-07T02:47:42;7.60;99.90
1461;DHT22;724;49.910;12.530;2023-05-07T02:50:11;7.70;99.90
1461;DHT22;724;49.910;12.530;2023-05-07T02:52:37;7.70;99.90
1461;DHT22;724;49.910;12.530;2023-05-07T02:55:05;7.80;99.90
1461;DHT22;724;49.910;12.530;2023-05-07T02:57:32;7.70;99.90
1461;DHT22;724;49.910;12.530;2023-05-07T03:00:13;7.70;99.90
1461;DHT22;724;49.910;12.530;2023-05-07T03:02:42;7.70;99.90
1461;DHT22;724;49.910;12.530;2023-05-07T03:05:10;7.60;99.90
1461;DHT22;724;49.910;12.530;2023-05-07T03:07:38;7.60;99.90
1461;DHT22;724;49.910;12.530;2023-05-07T03:10:06;7.60;99.90
1461;DHT22;724;49.910;12.530;2023-05-07T03:12:33;7.70;99.90
1461;DHT22;724;49.910;12.530;2023-05-07T03:15:00;7.60;99.90
1461;DHT22;724;49.910;12.530;2023-05-07T03:17:27;7.50;99.90
1461;DHT22;724;49.910;12.530;2023-05-07T03:19:56;7.50;99.90
1461;DHT22;724;49.910;12.530;2023-05-07T03:22:26;7.50;99.90
1461;DHT22;724;49.910;12.530;2023-05-07T03:24:53;7.40;99.90
1461;DHT22;724;49.910;12.530;2023-05-07T03:27:21;7.40;99.90
1461;DHT22;724;49.910;12.530;2023-05-07T03:29:48;7.50;99.90
1461;DHT22;724;49.910;12.530;2023-05-07T03:32:15;7.50;99.90
1461;DHT22;724;49.910;12.530;2023-05-07T03:34:42;7.40;99.90
1461;DHT22;724;49.910;12.530;2023-05-07T03:37:10;7.50;99.90
1461;DHT22;724;49.910;12.530;2023-05-07T03:39:37;7.50;99.90
1461;DHT22;724;49.910;12.530;2023-05-07T03:42:04;7.50;99.90
1461;DHT22;724;49.910;12.530;2023-05-07T03:44:33;7.40;99.90
1461;DHT22;724;49.910;12.530;2023-05-07T03:47:01;7.50;99.90
1461;DHT22;724;49.910;12.530;2023-05-07T03:49:29;7.50;99.90
1461;DHT22;724;49.910;12.530;2023-05-07T03:51:56;7.50;99.90
1461;DHT22;724;49.910;12.530;2023-05-07T03:54:25;7.50;99.90
1461;DHT22;724;49.910;12.530;2023-05-07T03:56:55;7.50;99.90
1461;DHT22;724;49.910;12.530;2023-05-07T03:59:22;7.50;99.90
1461;DHT22;724;49.910;12.530;2023-05-07T04:01:53;7.50;99.90
1461;DHT22;724;49.910;12.530;2023-05-07T04:04:20;7.60;99.90
1461;DHT22;724;49.910;12.530;2023-05-07T04:06:50;7.60;99.90
1461;DHT22;724;49.910;12.530;2023-05-07T04:09:17;7.60;99.90
1461;DHT22;724;49.910;12.530;2023-05-07T04:11:48;7.50;99.90
1461;DHT22;724;49.910;12.530;2023-05-07T04:14:14;7.50;99.90
1461;DHT22;724;49.910;12.530;2023-05-07T04:16:41;7.50;99.90
1461;DHT22;724;49.910;12.530;2023-05-07T04:19:09;7.50;99.90
1461;DHT22;724;49.910;12.530;2023-05-07T04:21:39;7.60;99.90
1461;DHT22;724;49.910;12.530;2023-05-07T04:24:08;7.60;99.90
1461;DHT22;724;49.910;12.530;2023-05-07T04:26:34;7.60;99.90
1461;DHT22;724;49.910;12.530;2023-05-07T04:29:03;7.70;99.90
1461;DHT22;724;49.910;12.530;2023-05-07T04:31:31;7.80;99.90
1461;DHT22;724;49.910;12.530;2023-05-07T04:33:58;7.80;99.90
1461;DHT22;724;49.910;12.530;2023-05-07T04:36:25;7.90;99.90
1461;DHT22;724;49.910;12.530;2023-05-07T04:38:53;7.90;99.90
1461;DHT22;724;49.910;12.530;2023-05-07T04:41:19;7.80;99.90
1461;DHT22;724;49.910;12.530;2023-05-07T04:43:47;7.80;99.90
1461;DHT22;724;49.910;12.530;2023-05-07T04:46:15;7.80;99.90
1461;DHT22;724;49.910;12.530;2023-05-07T04:48:44;7.70;99.90
1461;DHT22;724;49.910;12.530;2023-05-07T04:51:11;7.70;99.90
1461;DHT22;724;49.910;12.530;2023-05-07T04:53:38;7.80;99.90
1461;DHT22;724;49.910;12.530;2023-05-07T04:56:06;7.80;99.90
1461;DHT22;724;49.910;12.530;2023-05-07T04:58:33;7.90;99.90
1461;DHT22;724;49.910;12.530;2023-05-07T05:01:00;7.90;99.90
1461;DHT22;724;49.910;12.530;2023-05-07T05:03:29;7.90;99.90
1461;DHT22;724;49.910;12.530;2023-05-07T05:05:56;8.00;99.90
1461;DHT22;724;49.910;12.530;2023-05-07T05:08:24;7.90;99.90
1461;DHT22;724;49.910;12.530;2023-05-07T05:10:52;7.80;99.90
1461;DHT22;724;49.910;12.530;2023-05-07T05:13:18;7.80;99.90
1461;DHT22;724;49.910;12.530;2023-05-07T05:15:45;7.90;99.90
1461;DHT22;724;49.910;12.530;2023-05-07T05:18:13;7.90;99.90
1461;DHT22;724;49.910;12.530;2023-05-07T05:20:41;7.90;99.90
1461;DHT22;724;49.910;12.530;2023-05-07T05:23:09;7.80;99.90
1461;DHT22;724;49.910;12.530;2023-05-07T05:25:36;7.50;99.90
1461;DHT22;724;49.910;12.530;2023-05-07T05:28:04;7.60;99.90
1461;DHT22;724;49.910;12.530;2023-05-07T05:30:31;7.70;99.90
1461;DHT22;724;49.910;12.530;2023-05-07T05:32:58;7.90;99.90
1461;DHT22;724;49.910;12.530;2023-05-07T05:35:25;7.70;99.90
1461;DHT22;724;49.910;12.530;2023-05-07T05:37:53;7.50;99.90
1461;DHT22;724;49.910;12.530;2023-05-07T05:40:20;7.70;99.90
1461;DHT22;724;49.910;12.530;2023-05-07T05:42:48;7.90;99.90
1461;DHT22;724;49.910;12.530;2023-05-07T05:45:17;7.90;99.90
1461;DHT22;724;49.910;12.530;2023-05-07T05:47:44;8.00;99.90
1461;DHT22;724;49.910;12.530;2023-05-07T05:50:11;8.10;99.90
1461;DHT22;724;49.910;12.530;2023-05-07T05:52:38;8.00;99.90
1461;DHT22;724;49.910;12.530;2023-05-07T05:55:09;7.90;99.90
1461;DHT22;724;49.910;12.530;2023-05-07T05:57:36;7.90;99.90
1461;DHT22;724;49.910;12.530;2023-05-07T06:00:03;8.00;99.90
1461;DHT22;724;49.910;12.530;2023-05-07T06:02:30;7.90;99.90
1461;DHT22;724;49.910;12.530;2023-05-07T06:04:57;7.80;99.90
1461;DHT22;724;49.910;12.530;2023-05-07T06:07:24;7.80;99.90
1461;DHT22;724;49.910;12.530;2023-05-07T06:09:50;7.80;99.90
1461;DHT22;724;49.910;12.530;2023-05-07T06:12:19;7.80;99.90
1461;DHT22;724;49.910;12.530;2023-05-07T06:14:45;8.10;99.90
1461;DHT22;724;49.910;12.530;2023-05-07T06:17:12;8.00;99.90
1461;DHT22;724;49.910;12.530;2023-05-07T06:19:39;8.10;99.90
1461;DHT22;724;49.910;12.530;2023-05-07T06:22:07;8.10;99.90
1461;DHT22;724;49.910;12.530;2023-05-07T06:24:34;8.40;99.90
1461;DHT22;724;49.910;12.530;2023-05-07T06:27:01;8.40;99.90
1461;DHT22;724;49.910;12.530;2023-05-07T06:29:30;8.40;99.90
1461;DHT22;724;49.910;12.530;2023-05-07T06:32:21;8.50;99.90
1461;DHT22;724;49.910;12.530;2023-05-07T06:34:52;8.50;99.90
1461;DHT22;724;49.910;12.530;2023-05-07T06:37:21;8.40;99.90
1461;DHT22;724;49.910;12.530;2023-05-07T06:39:48;8.40;99.90
1461;DHT22;724;49.910;12.530;2023-05-07T06:42:18;8.40;99.90
1461;DHT22;724;49.910;12.530;2023-05-07T06:44:46;8.50;99.90
1461;DHT22;724;49.910;12.530;2023-05-07T06:47:13;8.50;99.90
1461;DHT22;724;49.910;12.530;2023-05-07T06:49:41;8.60;99.90
1461;DHT22;724;49.910;12.530;2023-05-07T06:52:07;8.50;99.90
1461;DHT22;724;49.910;12.530;2023-05-07T06:54:34;8.70;1.00
1461;DHT22;724;49.910;12.530;2023-05-07T06:57:04;8.20;1.00
1461;DHT22;724;49.910;12.530;2023-05-07T06:59:31;8.70;34.10
1461;DHT22;724;49.910;12.530;2023-05-07T07:01:59;8.70;1.00
1461;DHT22;724;49.910;12.530;2023-05-07T07:04:27;8.90;1.00
1461;DHT22;724;49.910;12.530;2023-05-07T07:06:54;8.90;99.90
1461;DHT22;724;49.910;12.530;2023-05-07T07:09:22;8.70;99.90
1461;DHT22;724;49.910;12.530;2023-05-07T07:11:49;8.60;1.00
1461;DHT22;724;49.910;12.530;2023-05-07T07:14:16;8.60;1.00
1461;DHT22;724;49.910;12.530;2023-05-07T07:16:48;8.80;1.00
1461;DHT22;724;49.910;12.530;2023-05-07T07:19:22;8.90;99.90
1461;DHT22;724;49.910;12.530;2023-05-07T07:21:49;9.10;1.00
1461;DHT22;724;49.910;12.530;2023-05-07T07:24:15;9.50;99.90
1461;DHT22;724;49.910;12.530;2023-05-07T07:26:46;9.50;1.00
1461;DHT22;724;49.910;12.530;2023-05-07T07:29:17;9.20;1.00
1461;DHT22;724;49.910;12.530;2023-05-07T07:31:44;9.60;1.00
1461;DHT22;724;49.910;12.530;2023-05-07T07:34:10;9.60;99.90
1461;DHT22;724;49.910;12.530;2023-05-07T07:36:38;10.20;1.00
1461;DHT22;724;49.910;12.530;2023-05-07T07:39:05;10.70;1.00
1461;DHT22;724;49.910;12.530;2023-05-07T07:41:32;11.10;99.90
1461;DHT22;724;49.910;12.530;2023-05-07T07:43:59;10.80;99.90
1461;DHT22;724;49.910;12.530;2023-05-07T07:46:26;10.70;46.00
1461;DHT22;724;49.910;12.530;2023-05-07T07:48:53;10.60;40.00
1461;DHT22;724;49.910;12.530;2023-05-07T07:51:19;11.50;1.00
1461;DHT22;724;49.910;12.530;2023-05-07T07:53:48;11.60;1.00
1461;DHT22;724;49.910;12.530;2023-05-07T07:56:15;12.40;1.00
1461;DHT22;724;49.910;12.530;2023-05-07T07:58:42;12.80;1.00
1461;DHT22;724;49.910;12.530;2023-05-07T08:01:09;13.20;1.00
1461;DHT22;724;49.910;12.530;2023-05-07T08:03:46;13.30;99.90
1461;DHT22;724;49.910;12.530;2023-05-07T08:06:15;13.00;99.90
1461;DHT22;724;49.910;12.530;2023-05-07T08:08:42;13.70;99.90
1461;DHT22;724;49.910;12.530;2023-05-07T08:11:12;13.80;99.90
1461;DHT22;724;49.910;12.530;2023-05-07T08:13:39;13.20;99.90
1461;DHT22;724;49.910;12.530;2023-05-07T08:16:09;14.10;99.90
1461;DHT22;724;49.910;12.530;2023-05-07T08:18:36;14.00;26.30
1461;DHT22;724;49.910;12.530;2023-05-07T08:21:05;14.40;1.00
1461;DHT22;724;49.910;12.530;2023-05-07T08:23:34;14.30;1.00
1461;DHT22;724;49.910;12.530;2023-05-07T08:26:01;13.50;1.00
1461;DHT22;724;49.910;12.530;2023-05-07T08:28:30;13.40;1.00
1461;DHT22;724;49.910;12.530;2023-05-07T08:31:08;14.00;1.00
1461;DHT22;724;49.910;12.530;2023-05-07T08:33:36;14.90;1.00
1461;DHT22;724;49.910;12.530;2023-05-07T08:36:04;15.00;1.00
1461;DHT22;724;49.910;12.530;2023-05-07T08:38:31;15.30;1.00
1461;DHT22;724;49.910;12.530;2023-05-07T08:40:58;15.10;1.00
1461;DHT22;724;49.910;12.530;2023-05-07T08:43:26;15.30;1.00
1461;DHT22;724;49.910;12.530;2023-05-07T08:45:55;15.50;1.00
1461;DHT22;724;49.910;12.530;2023-05-07T08:48:25;15.10;1.00
1461;DHT22;724;49.910;12.530;2023-05-07T08:50:53;15.50;1.00
1461;DHT22;724;49.910;12.530;2023-05-07T08:53:23;14.90;1.00
1461;DHT22;724;49.910;12.530;2023-05-07T08:55:50;15.50;1.00
1461;DHT22;724;49.910;12.530;2023-05-07T08:58:20;15.10;1.00
1461;DHT22;724;49.910;12.530;2023-05-07T09:00:47;14.80;1.00
1461;DHT22;724;49.910;12.530;2023-05-07T09:03:15;15.20;1.00
1461;DHT22;724;49.910;12.530;2023-05-07T09:05:43;16.00;1.00
1461;DHT22;724;49.910;12.530;2023-05-07T09:08:14;15.70;1.00
1461;DHT22;724;49.910;12.530;2023-05-07T09:10:44;16.50;1.00
1461;DHT22;724;49.910;12.530;2023-05-07T09:13:11;15.90;1.00
1461;DHT22;724;49.910;12.530;2023-05-07T09:15:40;15.80;1.00
1461;DHT22;724;49.910;12.530;2023-05-07T09:18:12;15.40;1.00
1461;DHT22;724;49.910;12.530;2023-05-07T09:20:41;16.40;1.00
1461;DHT22;724;49.910;12.530;2023-05-07T09:23:08;16.30;1.00
1461;DHT22;724;49.910;12.530;2023-05-07T09:25:36;15.70;1.00
1461;DHT22;724;49.910;12.530;2023-05-07T09:28:04;17.20;1.00
1461;DHT22;724;49.910;12.530;2023-05-07T09:30:32;16.00;1.00
1461;DHT22;724;49.910;12.530;2023-05-07T09:33:03;16.60;1.00
1461;DHT22;724;49.910;12.530;2023-05-07T09:35:30;16.50;1.00
1461;DHT22;724;49.910;12.530;2023-05-07T09:37:59;17.10;1.00
1461;DHT22;724;49.910;12.530;2023-05-07T09:40:30;16.70;1.00
1461;DHT22;724;49.910;12.530;2023-05-07T09:43:09;16.50;1.00
1461;DHT22;724;49.910;12.530;2023-05-07T09:45:38;16.90;1.00
1461;DHT22;724;49.910;12.530;2023-05-07T09:48:10;18.50;1.00
1461;DHT22;724;49.910;12.530;2023-05-07T09:50:44;16.20;1.00
1461;DHT22;724;49.910;12.530;2023-05-07T09:53:16;15.70;1.00
1461;DHT22;724;49.910;12.530;2023-05-07T09:55:53;16.60;1.00
1461;DHT22;724;49.910;12.530;2023-05-07T09:58:32;16.40;1.00
1461;DHT22;724;49.910;12.530;2023-05-07T10:01:07;17.80;1.00
1461;DHT22;724;49.910;12.530;2023-05-07T10:03:47;16.80;99.90
1461;DHT22;724;49.910;12.530;2023-05-07T10:06:15;17.00;1.00
1461;DHT22;724;49.910;12.530;2023-05-07T10:08:44;17.00;1.00
1461;DHT22;724;49.910;12.530;2023-05-07T10:11:11;15.30;1.00
1461;DHT22;724;49.910;12.530;2023-05-07T10:13:40;16.10;1.00
1461;DHT22;724;49.910;12.530;2023-05-07T10:16:10;16.50;1.00
1461;DHT22;724;49.910;12.530;2023-05-07T10:18:38;17.60;1.00
1461;DHT22;724;49.910;12.530;2023-05-07T10:21:08;16.80;99.90
1461;DHT22;724;49.910;12.530;2023-05-07T10:23:37;16.20;99.90
1461;DHT22;724;49.910;12.530;2023-05-07T10:26:08;15.50;99.90
1461;DHT22;724;49.910;12.530;2023-05-07T10:28:39;17.30;99.90
1461;DHT22;724;49.910;12.530;2023-05-07T10:31:18;17.00;99.90
1461;DHT22;724;49.910;12.530;2023-05-07T10:33:48;17.90;99.90
1461;DHT22;724;49.910;12.530;2023-05-07T10:36:18;17.80;99.90
1461;DHT22;724;49.910;12.530;2023-05-07T10:38:45;16.30;99.90
1461;DHT22;724;49.910;12.530;2023-05-07T10:41:14;17.80;99.90
1461;DHT22;724;49.910;12.530;2023-05-07T10:43:44;18.70;99.90
1461;DHT22;724;49.910;12.530;2023-05-07T10:46:14;18.10;99.90
1461;DHT22;724;49.910;12.530;2023-05-07T10:49:06;18.20;99.90
1461;DHT22;724;49.910;12.530;2023-05-07T10:51:33;17.30;99.90
1461;DHT22;724;49.910;12.530;2023-05-07T10:54:20;18.30;99.90
1461;DHT22;724;49.910;12.530;2023-05-07T10:56:49;18.20;99.90
1461;DHT22;724;49.910;12.530;2023-05-07T10:59:37;18.60;99.90
1461;DHT22;724;49.910;12.530;2023-05-07T11:02:08;19.00;99.90
1461;DHT22;724;49.910;12.530;2023-05-07T11:04:39;17.70;99.90
1461;DHT22;724;49.910;12.530;2023-05-07T11:07:24;18.10;99.90
1461;DHT22;724;49.910;12.530;2023-05-07T11:09:59;17.80;99.90
1461;DHT22;724;49.910;12.530;2023-05-07T11:12:47;17.70;99.90
1461;DHT22;724;49.910;12.530;2023-05-07T11:15:15;17.20;99.90
1461;DHT22;724;49.910;12.530;2023-05-07T11:17:59;17.70;99.90
1461;DHT22;724;49.910;12.530;2023-05-07T11:20:54;18.00;99.90
1461;DHT22;724;49.910;12.530;2023-05-07T11:23:55;16.20;99.90
1461;DHT22;724;49.910;12.530;2023-05-07T11:26:24;17.70;99.90
1461;DHT22;724;49.910;12.530;2023-05-07T11:28:52;17.40;99.90
1461;DHT22;724;49.910;12.530;2023-05-07T11:31:25;17.80;99.90
1461;DHT22;724;49.910;12.530;2023-05-07T11:33:53;18.30;99.90
1461;DHT22;724;49.910;12.530;2023-05-07T11:36:23;17.70;99.90
1461;DHT22;724;49.910;12.530;2023-05-07T11:38:51;18.30;99.90
1461;DHT22;724;49.910;12.530;2023-05-07T11:41:18;18.40;99.90
1461;DHT22;724;49.910;12.530;2023-05-07T11:43:55;18.40;99.90
1461;DHT22;724;49.910;12.530;2023-05-07T11:46:23;17.80;99.90
1461;DHT22;724;49.910;12.530;2023-05-07T11:48:50;17.80;99.90
1461;DHT22;724;49.910;12.530;2023-05-07T11:51:20;17.80;99.90
1461;DHT22;724;49.910;12.530;2023-05-07T11:53:48;17.40;99.90
1461;DHT22;724;49.910;12.530;2023-05-07T11:56:16;18.00;99.90
1461;DHT22;724;49.910;12.530;2023-05-07T11:58:45;18.00;99.90
1461;DHT22;724;49.910;12.530;2023-05-07T12:01:14;17.00;99.90
1461;DHT22;724;49.910;12.530;2023-05-07T12:03:43;17.40;99.90
1461;DHT22;724;49.910;12.530;2023-05-07T12:06:12;17.60;99.90
1461;DHT22;724;49.910;12.530;2023-05-07T12:08:39;18.20;99.90
1461;DHT22;724;49.910;12.530;2023-05-07T12:11:08;18.00;99.90
1461;DHT22;724;49.910;12.530;2023-05-07T12:13:37;18.20;99.90
1461;DHT22;724;49.910;12.530;2023-05-07T12:16:05;18.40;99.90
1461;DHT22;724;49.910;12.530;2023-05-07T12:18:34;18.30;99.90
1461;DHT22;724;49.910;12.530;2023-05-07T12:21:02;18.30;99.90
1461;DHT22;724;49.910;12.530;2023-05-07T12:23:30;17.00;99.90
1461;DHT22;724;49.910;12.530;2023-05-07T12:25:57;18.00;99.90
1461;DHT22;724;49.910;12.530;2023-05-07T12:28:24;18.40;99.90
1461;DHT22;724;49.910;12.530;2023-05-07T12:30:51;18.20;99.90
1461;DHT22;724;49.910;12.530;2023-05-07T12:33:23;17.60;99.90
1461;DHT22;724;49.910;12.530;2023-05-07T12:35:55;17.80;99.90
1461;DHT22;724;49.910;12.530;2023-05-07T12:38:22;18.10;99.90
1461;DHT22;724;49.910;12.530;2023-05-07T12:40:50;18.30;99.90
1461;DHT22;724;49.910;12.530;2023-05-07T12:43:20;17.90;99.90
1461;DHT22;724;49.910;12.530;2023-05-07T12:45:49;18.70;99.90
1461;DHT22;724;49.910;12.530;2023-05-07T12:48:16;17.80;99.90
1461;DHT22;724;49.910;12.530;2023-05-07T12:50:43;18.20;99.90
1461;DHT22;724;49.910;12.530;2023-05-07T12:53:12;18.10;99.90
1461;DHT22;724;49.910;12.530;2023-05-07T12:55:42;17.60;99.90
1461;DHT22;724;49.910;12.530;2023-05-07T12:58:17;17.60;99.90
1461;DHT22;724;49.910;12.530;2023-05-07T13:00:47;18.20;99.90
1461;DHT22;724;49.910;12.530;2023-05-07T13:03:21;18.20;99.90
1461;DHT22;724;49.910;12.530;2023-05-07T13:05:48;18.50;99.90
1461;DHT22;724;49.910;12.530;2023-05-07T13:08:25;17.90;99.90
1461;DHT22;724;49.910;12.530;2023-05-07T13:10:52;17.90;99.90
1461;DHT22;724;49.910;12.530;2023-05-07T13:13:19;18.20;99.90
1461;DHT22;724;49.910;12.530;2023-05-07T13:15:46;18.70;99.90
1461;DHT22;724;49.910;12.530;2023-05-07T13:18:13;19.20;99.90
1461;DHT22;724;49.910;12.530;2023-05-07T13:20:40;19.00;99.90
1461;DHT22;724;49.910;12.530;2023-05-07T13:23:07;18.30;99.90
1461;DHT22;724;49.910;12.530;2023-05-07T13:25:35;18.00;99.90
1461;DHT22;724;49.910;12.530;2023-05-07T13:31:02;18.30;99.90
1461;DHT22;724;49.910;12.530;2023-05-07T13:33:29;18.40;99.90
1461;DHT22;724;49.910;12.530;2023-05-07T13:35:56;17.70;99.90
1461;DHT22;724;49.910;12.530;2023-05-07T13:38:23;17.70;99.90
1461;DHT22;724;49.910;12.530;2023-05-07T13:40:51;17.80;99.90
1461;DHT22;724;49.910;12.530;2023-05-07T13:43:18;17.70;99.90
1461;DHT22;724;49.910;12.530;2023-05-07T13:45:45;18.20;99.90
1461;DHT22;724;49.910;12.530;2023-05-07T13:48:12;18.90;99.90
1461;DHT22;724;49.910;12.530;2023-05-07T13:50:39;18.60;99.90
1461;DHT22;724;49.910;12.530;2023-05-07T13:53:05;19.20;99.90
1461;DHT22;724;49.910;12.530;2023-05-07T13:55:32;19.10;99.90
1461;DHT22;724;49.910;12.530;2023-05-07T13:58:01;17.90;99.90
1461;DHT22;724;49.910;12.530;2023-05-07T14:00:29;17.80;99.90
1461;DHT22;724;49.910;12.530;2023-05-07T14:02:56;17.30;99.90
1461;DHT22;724;49.910;12.530;2023-05-07T14:05:23;18.40;99.90
1461;DHT22;724;49.910;12.530;2023-05-07T14:07:50;18.40;99.90
1461;DHT22;724;49.910;12.530;2023-05-07T14:10:18;18.20;99.90
1461;DHT22;724;49.910;12.530;2023-05-07T14:12:46;17.90;99.90
1461;DHT22;724;49.910;12.530;2023-05-07T14:15:15;17.80;99.90
1461;DHT22;724;49.910;12.530;2023-05-07T14:17:42;17.40;99.90
1461;DHT22;724;49.910;12.530;2023-05-07T14:20:09;17.30;99.90
1461;DHT22;724;49.910;12.530;2023-05-07T14:22:37;17.90;99.90
1461;DHT22;724;49.910;12.530;2023-05-07T14:25:04;17.60;99.90
1461;DHT22;724;49.910;12.530;2023-05-07T14:27:31;16.90;99.90
1461;DHT22;724;49.910;12.530;2023-05-07T14:29:58;16.80;99.90
1461;DHT22;724;49.910;12.530;2023-05-07T14:32:26;16.80;99.90
1461;DHT22;724;49.910;12.530;2023-05-07T14:34:53;16.70;99.90
1461;DHT22;724;49.910;12.530;2023-05-07T14:37:19;16.80;99.90
1461;DHT22;724;49.910;12.530;2023-05-07T14:39:46;16.70;99.90
1461;DHT22;724;49.910;12.530;2023-05-07T14:42:13;16.80;99.90
1461;DHT22;724;49.910;12.530;2023-05-07T14:44:39;16.70;99.90
1461;DHT22;724;49.910;12.530;2023-05-07T14:47:07;16.70;99.90
1461;DHT22;724;49.910;12.530;2023-05-07T14:49:35;16.70;99.90
1461;DHT22;724;49.910;12.530;2023-05-07T14:52:02;16.50;99.90
1461;DHT22;724;49.910;12.530;2023-05-07T14:54:29;16.30;99.90
1461;DHT22;724;49.910;12.530;2023-05-07T14:56:56;16.10;99.90
1461;DHT22;724;49.910;12.530;2023-05-07T14:59:23;16.50;99.90
1461;DHT22;724;49.910;12.530;2023-05-07T15:01:50;16.40;99.90
1461;DHT22;724;49.910;12.530;2023-05-07T15:04:17;16.60;99.90
1461;DHT22;724;49.910;12.530;2023-05-07T15:06:45;16.80;99.90
1461;DHT22;724;49.910;12.530;2023-05-07T15:09:12;16.60;99.90
1461;DHT22;724;49.910;12.530;2023-05-07T15:11:41;16.70;99.90
1461;DHT22;724;49.910;12.530;2023-05-07T15:14:08;16.40;99.90
1461;DHT22;724;49.910;12.530;2023-05-07T15:16:35;15.90;99.90
1461;DHT22;724;49.910;12.530;2023-05-07T15:19:01;16.40;99.90
1461;DHT22;724;49.910;12.530;2023-05-07T15:21:28;16.60;99.90
1461;DHT22;724;49.910;12.530;2023-05-07T15:23:57;17.00;99.90
1461;DHT22;724;49.910;12.530;2023-05-07T15:26:24;16.70;99.90
1461;DHT22;724;49.910;12.530;2023-05-07T15:28:50;16.90;99.90
1461;DHT22;724;49.910;12.530;2023-05-07T15:31:17;16.70;99.90
1461;DHT22;724;49.910;12.530;2023-05-07T15:33:44;16.20;99.90
1461;DHT22;724;49.910;12.530;2023-05-07T15:36:12;16.20;99.90
1461;DHT22;724;49.910;12.530;2023-05-07T15:38:39;16.30;99.90
1461;DHT22;724;49.910;12.530;2023-05-07T15:41:07;16.30;99.90
1461;DHT22;724;49.910;12.530;2023-05-07T15:43:44;16.20;99.90
1461;DHT22;724;49.910;12.530;2023-05-07T15:46:11;16.00;99.90
1461;DHT22;724;49.910;12.530;2023-05-07T15:48:37;16.50;99.90
1461;DHT22;724;49.910;12.530;2023-05-07T15:51:04;16.30;99.90
1461;DHT22;724;49.910;12.530;2023-05-07T15:53:34;16.30;99.90
1461;DHT22;724;49.910;12.530;2023-05-07T15:56:01;16.10;99.90
1461;DHT22;724;49.910;12.530;2023-05-07T15:58:29;15.70;99.90
1461;DHT22;724;49.910;12.530;2023-05-07T16:00:56;15.80;99.90
1461;DHT22;724;49.910;12.530;2023-05-07T16:03:23;16.00;99.90
1461;DHT22;724;49.910;12.530;2023-05-07T16:05:49;15.60;99.90
1461;DHT22;724;49.910;12.530;2023-05-07T16:08:16;15.30;99.90
1461;DHT22;724;49.910;12.530;2023-05-07T16:10:43;15.50;99.90
1461;DHT22;724;49.910;12.530;2023-05-07T16:13:10;15.10;99.90
1461;DHT22;724;49.910;12.530;2023-05-07T16:15:38;15.10;99.90
1461;DHT22;724;49.910;12.530;2023-05-07T16:18:04;15.10;99.90
1461;DHT22;724;49.910;12.530;2023-05-07T16:20:31;15.00;99.90
1461;DHT22;724;49.910;12.530;2023-05-07T16:22:58;15.00;99.90
1461;DHT22;724;49.910;12.530;2023-05-07T16:25:25;15.30;99.90